»·PEaware :: ANW942 KLAX-KABQ

ANW942 :: KLAX-KABQ

FLIGHT INFORMATION

Flight Status: Arrived
Operator:
Air Northwest (website)
More flights by this operator :: More flights under this callsign
Pilot: Brian G. (1243)
Aircraft: BOEING 737-800
(B738)
More flights by this aircraft type
Origin: KLAX Los Angeles Intl
United States
Destination: KABQ Albuquerque Intl Sunport
United States
More flights between these airports :: More routes between these airports
Route: LAXX6 TRM J78 PKE J74 SJN LAVAN3
File this flight plan on PilotEdge
Remarks:
Altitude:
(Current/Filed)
29,000ft
Speed:
(Current/Filed)
447kts
Departed: 14-Apr-13 09:04 PM
Arrived: 14-Apr-13 10:33 PM
Distance/Time
Traveled:
588nm/1:29
Distance/Time
To Go:
Arrived

Flight Plot

Page will automatically refresh every two minutes.


Map Options




Map Legend


Flown Route
Filed Route
Departure Airport
Arrival Airport
Navaid (VOR, NDB)
Fix

Horizontal Profiles

Position Reports

Time Latitude Longitude Heading Altitude Ground
Speed
14-Apr-13 20:41 33.939950 -118.407165 32 135ft 0kts
14-Apr-13 20:42 33.939950 -118.407165 32 135ft 0kts
14-Apr-13 20:43 33.939950 -118.407165 32 135ft 0kts
14-Apr-13 20:44 33.939950 -118.407165 32 135ft 0kts
14-Apr-13 20:45 33.939950 -118.407165 32 135ft 0kts
14-Apr-13 20:46 33.939950 -118.407165 32 135ft 0kts
14-Apr-13 20:47 33.939950 -118.407165 32 135ft 0kts
14-Apr-13 20:48 33.939950 -118.407165 32 135ft 0kts
14-Apr-13 20:49 33.939950 -118.407165 32 135ft 0kts
14-Apr-13 20:50 33.939950 -118.407165 32 135ft 0kts
14-Apr-13 20:51 33.939950 -118.407165 32 135ft 0kts
14-Apr-13 20:52 33.939927 -118.407183 32 135ft 1kts
14-Apr-13 20:53 33.939484 -118.407174 216 135ft 5kts
14-Apr-13 20:54 33.938142 -118.407505 106 135ft 5kts
14-Apr-13 20:55 33.938441 -118.403742 83 135ft 16kts
14-Apr-13 20:56 33.939102 -118.397394 80 135ft 19kts
14-Apr-13 20:57 33.939625 -118.392033 83 135ft 12kts
14-Apr-13 20:58 33.939965 -118.388762 82 135ft 7kts
14-Apr-13 20:59 33.940192 -118.386480 83 135ft 7kts
14-Apr-13 21:00 33.940546 -118.383044 82 135ft 13kts
14-Apr-13 21:01 33.940727 -118.381007 97 135ft 0kts
14-Apr-13 21:02 33.940712 -118.380866 97 135ft 4kts
14-Apr-13 21:03 33.939808 -118.381405 261 135ft 36kts
14-Apr-13 21:04 33.935124 -118.426021 263 1784ft 179kts
14-Apr-13 21:05 33.908678 -118.476478 207 5419ft 211kts
14-Apr-13 21:06 33.848059 -118.499761 203 8447ft 253kts
14-Apr-13 21:07 33.773443 -118.527222 202 11056ft 310kts
14-Apr-13 21:08 33.683889 -118.560826 202 12953ft 357kts
14-Apr-13 21:09 33.586081 -118.595699 197 13074ft 378kts
14-Apr-13 21:10 33.498844 -118.549265 113 15242ft 375kts
14-Apr-13 21:11 33.480902 -118.425051 89 17857ft 390kts
14-Apr-13 21:12 33.475706 -118.291696 89 20169ft 410kts
14-Apr-13 21:13 33.472953 -118.154387 84 22339ft 420kts
14-Apr-13 21:14 33.482682 -118.013824 78 24275ft 426kts
14-Apr-13 21:15 33.503639 -117.871345 75 25742ft 441kts
14-Apr-13 21:16 33.521269 -117.723442 81 27051ft 455kts
14-Apr-13 21:17 33.528284 -117.570910 85 28351ft 462kts
14-Apr-13 21:18 33.533370 -117.414860 83 28948ft 475kts
14-Apr-13 21:19 33.545796 -117.259209 79 28953ft 467kts
14-Apr-13 21:20 33.560764 -117.104714 81 28944ft 469kts
14-Apr-13 21:21 33.571094 -116.947395 82 28924ft 476kts
14-Apr-13 21:22 33.581451 -116.788133 81 28832ft 483kts
14-Apr-13 21:23 33.594522 -116.627247 81 28733ft 488kts
14-Apr-13 21:24 33.605436 -116.466401 81 28703ft 482kts
14-Apr-13 21:25 33.617936 -116.307198 81 28681ft 478kts
14-Apr-13 21:26 33.642964 -116.152304 68 28672ft 470kts
14-Apr-13 21:27 33.687640 -116.005430 64 28681ft 466kts
14-Apr-13 21:28 33.735193 -115.861000 63 28692ft 465kts
14-Apr-13 21:29 33.782498 -115.716679 63 28720ft 465kts
14-Apr-13 21:30 33.829511 -115.571457 64 28720ft 467kts
14-Apr-13 21:31 33.876242 -115.425592 64 28698ft 469kts
14-Apr-13 21:32 33.922932 -115.278508 65 28689ft 470kts
14-Apr-13 21:33 33.969283 -115.131126 65 28678ft 472kts
14-Apr-13 21:34 34.015345 -114.982973 65 28642ft 474kts
14-Apr-13 21:35 34.061139 -114.832781 66 28601ft 477kts
14-Apr-13 21:36 34.102807 -114.680192 73 28568ft 482kts
14-Apr-13 21:37 34.124947 -114.520174 80 28565ft 486kts
14-Apr-13 21:38 34.139699 -114.357519 82 28564ft 487kts
14-Apr-13 21:39 34.152644 -114.195042 82 28564ft 487kts
14-Apr-13 21:40 34.165071 -114.032449 82 28585ft 487kts
14-Apr-13 21:41 34.177238 -113.869636 82 28598ft 487kts
14-Apr-13 21:42 34.189193 -113.706688 82 28605ft 488kts
14-Apr-13 21:43 34.200951 -113.543537 83 28612ft 488kts
14-Apr-13 21:44 34.212541 -113.379692 83 28615ft 489kts
14-Apr-13 21:45 34.223884 -113.216213 83 28617ft 489kts
14-Apr-13 21:46 34.235017 -113.052566 83 28619ft 489kts
14-Apr-13 21:47 34.245931 -112.888819 83 28620ft 489kts
14-Apr-13 21:48 34.256628 -112.724969 83 28624ft 489kts
14-Apr-13 21:49 34.267087 -112.561252 84 28661ft 489kts
14-Apr-13 21:50 34.277309 -112.397691 84 28853ft 484kts
14-Apr-13 21:51 34.287170 -112.235082 84 28841ft 486kts
14-Apr-13 21:52 34.296856 -112.072314 84 28868ft 486kts
14-Apr-13 21:53 34.306358 -111.909311 85 28856ft 486kts
14-Apr-13 21:54 34.315646 -111.746303 85 28853ft 487kts
14-Apr-13 21:55 34.324750 -111.582665 85 28852ft 486kts
14-Apr-13 21:56 34.333619 -111.419351 85 28783ft 487kts
14-Apr-13 21:57 34.342262 -111.255942 85 28770ft 487kts
14-Apr-13 21:58 34.350657 -111.092620 85 28768ft 486kts
14-Apr-13 21:59 34.358803 -110.929419 85 28770ft 486kts
14-Apr-13 22:00 34.366737 -110.765789 85 28791ft 486kts
14-Apr-13 22:01 34.374399 -110.602736 86 28820ft 485kts
14-Apr-13 22:02 34.381805 -110.439826 86 28855ft 485kts
14-Apr-13 22:03 34.388962 -110.276931 86 28887ft 485kts
14-Apr-13 22:04 34.395862 -110.113783 86 28894ft 486kts
14-Apr-13 22:05 34.402483 -109.950514 86 28895ft 486kts
14-Apr-13 22:06 34.408807 -109.786622 86 28888ft 487kts
14-Apr-13 22:07 34.414733 -109.622979 87 28868ft 487kts
14-Apr-13 22:08 34.420138 -109.459022 87 28858ft 488kts
14-Apr-13 22:09 34.424627 -109.294900 88 28853ft 488kts
14-Apr-13 22:10 34.430554 -109.130794 81 27965ft 482kts
14-Apr-13 22:11 34.456120 -108.975780 75 26197ft 460kts
14-Apr-13 22:12 34.484570 -108.826447 75 24424ft 447kts
14-Apr-13 22:13 34.510706 -108.681250 76 22659ft 436kts
14-Apr-13 22:14 34.534542 -108.539262 78 20894ft 424kts
14-Apr-13 22:15 34.556673 -108.400742 78 19127ft 412kts
14-Apr-13 22:16 34.577042 -108.265569 81 17357ft 400kts
14-Apr-13 22:17 34.593106 -108.133991 81 15593ft 389kts
14-Apr-13 22:18 34.611390 -108.007512 79 14993ft 376kts
14-Apr-13 22:19 34.631490 -107.882995 79 14997ft 378kts
14-Apr-13 22:20 34.653077 -107.757463 76 14993ft 379kts
14-Apr-13 22:21 34.691393 -107.638447 63 14996ft 379kts
14-Apr-13 22:22 34.736979 -107.522480 63 14995ft 379kts
14-Apr-13 22:23 34.782542 -107.407012 61 15000ft 379kts
14-Apr-13 22:24 34.834705 -107.295804 56 14983ft 379kts
14-Apr-13 22:25 34.889730 -107.185391 58 13996ft 383kts
14-Apr-13 22:26 34.942112 -107.075107 58 12247ft 370kts
14-Apr-13 22:27 34.990252 -106.971648 58 10497ft 328kts
14-Apr-13 22:28 35.031071 -106.882809 58 9141ft 262kts
14-Apr-13 22:29 35.049030 -106.808808 112 8356ft 224kts
14-Apr-13 22:30 35.044173 -106.734734 84 7248ft 216kts
14-Apr-13 22:31 35.044552 -106.667147 90 6167ft 186kts
14-Apr-13 22:32 35.044332 -106.607295 91 5364ft 127kts
14-Apr-13 22:33 35.044895 -106.597058 68 5364ft 10kts
14-Apr-13 22:34 35.046684 -106.595548 290 5364ft 20kts

Navigation Log

Ident Type
Flight plan parsing failed, navigation log unavailable